VIR3N EGLL-KJFK
Flight info
| Callsign | VIR3N |
|---|---|
| Flight time | N/A |
| Altitude | 34000 |
| Route | CPT L9 BIBPE DCT BUCGO DCT FELCA DCT NICXI DCT BAKUR DCT NEBIN/M083F340 DCT 5330N02000W 5230N03000W 51N040W 4930N05000W DCT IBERG/N0479F340 N364A TUSKY DCT PLYMM PARCH4 |
| Aircraft | A339/H-SADE1E2E3GHIJ3J5M1P2RWXY/LB2D1 |
Departure
| Time | N/A |
|---|---|
| Airport | London Heathrow Airport (EGLL) |
Arrival
| Time | 2026-05-07 16:24 |
|---|---|
| Airport | John F. Kennedy International Airport (KJFK) |
| Time | Latitude | Longitude | Altitude | Speed | Heading |
|---|---|---|---|---|---|
| 2026-05-07 10:04 | 52.92266 | -9.98104 | 37915 ft | 479 kts | 281° |
| 2026-05-07 10:04 | 52.93738 | -10.08823 | 37923 ft | 480 kts | 281° |
| 2026-05-07 10:05 | 52.95213 | -10.19641 | 37909 ft | 479 kts | 281° |
| 2026-05-07 10:05 | 52.96664 | -10.30364 | 37919 ft | 479 kts | 281° |
| 2026-05-07 10:06 | 52.98116 | -10.41171 | 37909 ft | 479 kts | 281° |
| 2026-05-07 10:06 | 52.99551 | -10.51923 | 37900 ft | 479 kts | 281° |
| 2026-05-07 10:07 | 53.00984 | -10.62734 | 37904 ft | 478 kts | 281° |
| 2026-05-07 10:07 | 53.02391 | -10.73440 | 37905 ft | 477 kts | 280° |
| 2026-05-07 10:08 | 53.03793 | -10.84182 | 37910 ft | 477 kts | 280° |
| 2026-05-07 10:08 | 53.05182 | -10.94904 | 37907 ft | 477 kts | 280° |
| 2026-05-07 10:09 | 53.06567 | -11.05682 | 37906 ft | 476 kts | 280° |
| 2026-05-07 10:09 | 53.07935 | -11.16406 | 37905 ft | 476 kts | 280° |
| 2026-05-07 10:10 | 53.09290 | -11.27107 | 37895 ft | 475 kts | 280° |
| 2026-05-07 10:10 | 53.10636 | -11.37834 | 37898 ft | 475 kts | 280° |
| 2026-05-07 10:11 | 53.11974 | -11.48568 | 37902 ft | 475 kts | 280° |
| 2026-05-07 10:11 | 53.13296 | -11.59272 | 37902 ft | 475 kts | 280° |
| 2026-05-07 10:12 | 53.14605 | -11.69949 | 37891 ft | 474 kts | 279° |
| 2026-05-07 10:12 | 53.15914 | -11.80702 | 37879 ft | 473 kts | 279° |
| 2026-05-07 10:13 | 53.17202 | -11.91371 | 37865 ft | 473 kts | 279° |
| 2026-05-07 10:13 | 53.18485 | -12.02081 | 37866 ft | 473 kts | 279° |
| 2026-05-07 10:14 | 53.19760 | -12.12825 | 37869 ft | 472 kts | 279° |
| 2026-05-07 10:14 | 53.21020 | -12.23527 | 37881 ft | 472 kts | 279° |
| 2026-05-07 10:15 | 53.22277 | -12.34275 | 37885 ft | 472 kts | 279° |
| 2026-05-07 10:15 | 53.23517 | -12.44975 | 37885 ft | 472 kts | 279° |
| 2026-05-07 10:16 | 53.24749 | -12.55701 | 37890 ft | 472 kts | 279° |
| 2026-05-07 10:16 | 53.25969 | -12.66407 | 37887 ft | 472 kts | 278° |
| 2026-05-07 10:17 | 53.27183 | -12.77153 | 37882 ft | 471 kts | 278° |
| 2026-05-07 10:17 | 53.28375 | -12.87802 | 37870 ft | 471 kts | 278° |
| 2026-05-07 10:18 | 53.29568 | -12.98541 | 37864 ft | 470 kts | 278° |
| 2026-05-07 10:18 | 53.30743 | -13.09217 | 37876 ft | 470 kts | 278° |
| 2026-05-07 10:19 | 53.31918 | -13.19972 | 37885 ft | 470 kts | 278° |
| 2026-05-07 10:19 | 53.33068 | -13.30597 | 37891 ft | 469 kts | 278° |
| 2026-05-07 10:20 | 53.34220 | -13.41350 | 37893 ft | 469 kts | 278° |
| 2026-05-07 10:20 | 53.35355 | -13.52034 | 37889 ft | 468 kts | 278° |
| 2026-05-07 10:21 | 53.36482 | -13.62725 | 37961 ft | 468 kts | 278° |
| 2026-05-07 10:21 | 53.37595 | -13.73387 | 37923 ft | 467 kts | 278° |
| 2026-05-07 10:22 | 53.38697 | -13.84039 | 37911 ft | 467 kts | 278° |
| 2026-05-07 10:22 | 53.39793 | -13.94743 | 37896 ft | 467 kts | 278° |
| 2026-05-07 10:23 | 53.40875 | -14.05400 | 37888 ft | 467 kts | 278° |
| 2026-05-07 10:23 | 53.41949 | -14.16079 | 37893 ft | 467 kts | 278° |
| 2026-05-07 10:24 | 53.43016 | -14.26794 | 37893 ft | 467 kts | 278° |
| 2026-05-07 10:24 | 53.44068 | -14.37453 | 37887 ft | 466 kts | 278° |
| 2026-05-07 10:25 | 53.45110 | -14.48122 | 37890 ft | 466 kts | 278° |
| 2026-05-07 10:25 | 53.46146 | -14.58834 | 37902 ft | 466 kts | 278° |
| 2026-05-07 10:26 | 53.47167 | -14.69506 | 37899 ft | 466 kts | 277° |
| 2026-05-07 10:26 | 53.48181 | -14.80235 | 37914 ft | 466 kts | 277° |
| 2026-05-07 10:27 | 53.49178 | -14.90872 | 37900 ft | 466 kts | 277° |
| 2026-05-07 10:27 | 53.49997 | -15.01650 | 37894 ft | 465 kts | 273° |
| 2026-05-07 10:28 | 53.50293 | -15.12433 | 37897 ft | 464 kts | 271° |
| 2026-05-07 10:28 | 53.50502 | -15.23260 | 37896 ft | 465 kts | 271° |
| 2026-05-07 10:29 | 53.50700 | -15.34056 | 37910 ft | 465 kts | 271° |
| 2026-05-07 10:29 | 53.50890 | -15.44816 | 37897 ft | 464 kts | 271° |
| 2026-05-07 10:30 | 53.51157 | -15.61099 | 37909 ft | 465 kts | 271° |
| 2026-05-07 10:30 | 53.51324 | -15.71914 | 37916 ft | 465 kts | 270° |
| 2026-05-07 10:31 | 53.51479 | -15.82761 | 37915 ft | 466 kts | 270° |
| 2026-05-07 10:31 | 53.51626 | -15.93614 | 37921 ft | 466 kts | 270° |
| 2026-05-07 10:32 | 53.51762 | -16.04399 | 37916 ft | 466 kts | 270° |
| 2026-05-07 10:32 | 53.51888 | -16.15260 | 37911 ft | 465 kts | 270° |
| 2026-05-07 10:33 | 53.52004 | -16.26062 | 37919 ft | 466 kts | 270° |
| 2026-05-07 10:33 | 53.52111 | -16.36933 | 37920 ft | 466 kts | 270° |
| 2026-05-07 10:34 | 53.52209 | -16.47733 | 37925 ft | 466 kts | 270° |
| 2026-05-07 10:34 | 53.52297 | -16.58577 | 37926 ft | 466 kts | 270° |
| 2026-05-07 10:35 | 53.52374 | -16.69400 | 37914 ft | 467 kts | 270° |
| 2026-05-07 10:35 | 53.52443 | -16.80288 | 37923 ft | 467 kts | 270° |
| 2026-05-07 10:36 | 53.52501 | -16.91177 | 37931 ft | 467 kts | 270° |
| 2026-05-07 10:36 | 53.52549 | -17.02073 | 37934 ft | 467 kts | 270° |
| 2026-05-07 10:37 | 53.52587 | -17.12916 | 37945 ft | 468 kts | 270° |
| 2026-05-07 10:37 | 53.52616 | -17.23770 | 37946 ft | 468 kts | 270° |
| 2026-05-07 10:38 | 53.52636 | -17.34672 | 37947 ft | 467 kts | 270° |
| 2026-05-07 10:38 | 53.52645 | -17.45535 | 37948 ft | 468 kts | 270° |
| 2026-05-07 10:39 | 53.52643 | -17.56436 | 37951 ft | 468 kts | 270° |
| 2026-05-07 10:39 | 53.52633 | -17.67313 | 37953 ft | 467 kts | 269° |
| 2026-05-07 10:40 | 53.52612 | -17.78218 | 37945 ft | 468 kts | 269° |
| 2026-05-07 10:40 | 53.52582 | -17.89079 | 37946 ft | 467 kts | 269° |
| 2026-05-07 10:41 | 53.52542 | -17.99922 | 37950 ft | 467 kts | 269° |
| 2026-05-07 10:41 | 53.52491 | -18.10814 | 37950 ft | 468 kts | 270° |
| 2026-05-07 10:42 | 53.52431 | -18.21678 | 37955 ft | 469 kts | 270° |
| 2026-05-07 10:42 | 53.52360 | -18.32643 | 37958 ft | 469 kts | 270° |
| 2026-05-07 10:43 | 53.52280 | -18.43572 | 37962 ft | 469 kts | 270° |
| 2026-05-07 10:43 | 53.52190 | -18.54473 | 37962 ft | 469 kts | 270° |
| 2026-05-07 10:44 | 53.52090 | -18.65395 | 37967 ft | 469 kts | 269° |
| 2026-05-07 10:44 | 53.51978 | -18.76350 | 37970 ft | 470 kts | 269° |
| 2026-05-07 10:45 | 53.51856 | -18.87360 | 37976 ft | 469 kts | 269° |
| 2026-05-07 10:45 | 53.51726 | -18.98336 | 37969 ft | 469 kts | 269° |
| 2026-05-07 10:46 | 53.51585 | -19.09344 | 37986 ft | 470 kts | 269° |
| 2026-05-07 10:46 | 53.51434 | -19.20307 | 37984 ft | 470 kts | 269° |
| 2026-05-07 10:47 | 53.51273 | -19.31239 | 37988 ft | 470 kts | 269° |
| 2026-05-07 10:47 | 53.51101 | -19.42177 | 37987 ft | 471 kts | 269° |
| 2026-05-07 10:48 | 53.50920 | -19.53089 | 37985 ft | 471 kts | 269° |
| 2026-05-07 10:48 | 53.50727 | -19.64112 | 37982 ft | 471 kts | 269° |
| 2026-05-07 10:49 | 53.50524 | -19.75008 | 37985 ft | 470 kts | 269° |
| 2026-05-07 10:49 | 53.50309 | -19.85913 | 37986 ft | 470 kts | 269° |
| 2026-05-07 10:50 | 53.50084 | -19.96843 | 37989 ft | 470 kts | 269° |
| 2026-05-07 10:50 | 53.49588 | -20.07776 | 37985 ft | 471 kts | 266° |
| 2026-05-07 10:51 | 53.48971 | -20.18643 | 37992 ft | 470 kts | 265° |
| 2026-05-07 10:51 | 53.48338 | -20.29506 | 37992 ft | 471 kts | 265° |
| 2026-05-07 10:52 | 53.47690 | -20.40407 | 37998 ft | 472 kts | 266° |
| 2026-05-07 10:52 | 53.47033 | -20.51297 | 38002 ft | 471 kts | 266° |
| 2026-05-07 10:53 | 53.46365 | -20.62205 | 38007 ft | 472 kts | 266° |
| 2026-05-07 10:53 | 53.45689 | -20.73087 | 38007 ft | 471 kts | 265° |
| 2026-05-07 10:54 | 53.45003 | -20.83988 | 38009 ft | 471 kts | 265° |
| 2026-05-07 10:54 | 53.44306 | -20.94876 | 38014 ft | 471 kts | 265° |
| 2026-05-07 10:55 | 53.43599 | -21.05758 | 38019 ft | 472 kts | 265° |
| 2026-05-07 10:55 | 53.42882 | -21.16663 | 38027 ft | 473 kts | 265° |
| 2026-05-07 10:56 | 53.42152 | -21.27587 | 38028 ft | 473 kts | 265° |
| 2026-05-07 10:56 | 53.41415 | -21.38466 | 38027 ft | 472 kts | 265° |
| 2026-05-07 10:57 | 53.40669 | -21.49340 | 38030 ft | 472 kts | 265° |
| 2026-05-07 10:57 | 53.39914 | -21.60179 | 38026 ft | 471 kts | 265° |
| 2026-05-07 10:58 | 53.39148 | -21.71050 | 38029 ft | 471 kts | 265° |
| 2026-05-07 10:58 | 53.38372 | -21.81903 | 38025 ft | 472 kts | 265° |
| 2026-05-07 10:59 | 53.37582 | -21.92814 | 38027 ft | 472 kts | 265° |
| 2026-05-07 10:59 | 53.36787 | -22.03663 | 38026 ft | 472 kts | 265° |
| 2026-05-07 11:00 | 53.35979 | -22.14541 | 38026 ft | 473 kts | 265° |
| 2026-05-07 11:00 | 53.35164 | -22.25394 | 38033 ft | 473 kts | 265° |
| 2026-05-07 11:01 | 53.34340 | -22.36216 | 38034 ft | 472 kts | 265° |
| 2026-05-07 11:01 | 53.33499 | -22.47111 | 38033 ft | 473 kts | 265° |
| 2026-05-07 11:02 | 53.32656 | -22.57927 | 38036 ft | 473 kts | 265° |
| 2026-05-07 11:02 | 53.31797 | -22.68807 | 38041 ft | 473 kts | 264° |
| 2026-05-07 11:03 | 53.30933 | -22.79634 | 38041 ft | 473 kts | 264° |
| 2026-05-07 11:03 | 53.30055 | -22.90497 | 38043 ft | 473 kts | 264° |
| 2026-05-07 11:04 | 53.29164 | -23.01384 | 38044 ft | 473 kts | 264° |
| 2026-05-07 11:04 | 53.28270 | -23.12185 | 38040 ft | 474 kts | 264° |
| 2026-05-07 11:05 | 53.27358 | -23.23101 | 38040 ft | 475 kts | 264° |
| 2026-05-07 11:05 | 53.26436 | -23.33991 | 38044 ft | 476 kts | 264° |
| 2026-05-07 11:06 | 53.25503 | -23.44892 | 38043 ft | 476 kts | 264° |
| 2026-05-07 11:06 | 53.24564 | -23.55750 | 38042 ft | 476 kts | 265° |
| 2026-05-07 11:07 | 53.23614 | -23.66623 | 38045 ft | 476 kts | 264° |
| 2026-05-07 11:07 | 53.22650 | -23.77520 | 38051 ft | 476 kts | 264° |
| 2026-05-07 11:08 | 53.21675 | -23.88432 | 38053 ft | 476 kts | 264° |
| 2026-05-07 11:08 | 53.20697 | -23.99263 | 38048 ft | 476 kts | 264° |
| 2026-05-07 11:09 | 53.19702 | -24.10161 | 38057 ft | 477 kts | 264° |
| 2026-05-07 11:09 | 53.18699 | -24.21049 | 38046 ft | 478 kts | 264° |
| 2026-05-07 11:10 | 53.17685 | -24.31928 | 38057 ft | 478 kts | 264° |
| 2026-05-07 11:10 | 53.16663 | -24.42806 | 38057 ft | 478 kts | 264° |
| 2026-05-07 11:11 | 53.15624 | -24.53727 | 38062 ft | 479 kts | 264° |
| 2026-05-07 11:11 | 53.14578 | -24.64612 | 38070 ft | 479 kts | 264° |
| 2026-05-07 11:12 | 53.13518 | -24.75537 | 38071 ft | 479 kts | 264° |
| 2026-05-07 11:12 | 53.12450 | -24.86445 | 38074 ft | 479 kts | 264° |
| 2026-05-07 11:13 | 53.11374 | -24.97318 | 38078 ft | 478 kts | 264° |
| 2026-05-07 11:13 | 53.10296 | -25.08126 | 38087 ft | 478 kts | 264° |
| 2026-05-07 11:14 | 53.09195 | -25.19040 | 38097 ft | 478 kts | 264° |
| 2026-05-07 11:14 | 53.08086 | -25.29921 | 38094 ft | 478 kts | 264° |
| 2026-05-07 11:15 | 53.06968 | -25.40794 | 38093 ft | 479 kts | 264° |
| 2026-05-07 11:15 | 53.05844 | -25.51641 | 38094 ft | 480 kts | 264° |
| 2026-05-07 11:16 | 53.04707 | -25.62514 | 38092 ft | 480 kts | 264° |
| 2026-05-07 11:16 | 53.03557 | -25.73392 | 38090 ft | 480 kts | 263° |
| 2026-05-07 11:17 | 53.02397 | -25.84259 | 38093 ft | 480 kts | 264° |
| 2026-05-07 11:17 | 53.01226 | -25.95121 | 38083 ft | 480 kts | 264° |
| 2026-05-07 11:18 | 53.00051 | -26.05978 | 38093 ft | 479 kts | 264° |
| 2026-05-07 11:18 | 52.98869 | -26.16755 | 38095 ft | 478 kts | 264° |
| 2026-05-07 11:19 | 52.97675 | -26.27556 | 38102 ft | 479 kts | 264° |
| 2026-05-07 11:19 | 52.96464 | -26.38423 | 38101 ft | 479 kts | 264° |
| 2026-05-07 11:20 | 52.95253 | -26.49194 | 38106 ft | 478 kts | 264° |
| 2026-05-07 11:20 | 52.94028 | -26.59999 | 38112 ft | 478 kts | 264° |
| 2026-05-07 11:21 | 52.92799 | -26.70746 | 38109 ft | 477 kts | 264° |
| 2026-05-07 11:21 | 52.91551 | -26.81555 | 38110 ft | 478 kts | 263° |
| 2026-05-07 11:22 | 52.90298 | -26.92325 | 38113 ft | 478 kts | 264° |
| 2026-05-07 11:22 | 52.89039 | -27.03064 | 38112 ft | 477 kts | 264° |
| 2026-05-07 11:23 | 52.87777 | -27.13743 | 38113 ft | 477 kts | 264° |
| 2026-05-07 11:23 | 52.86493 | -27.24500 | 38117 ft | 478 kts | 264° |
| 2026-05-07 11:24 | 52.85202 | -27.35230 | 38110 ft | 478 kts | 264° |
| 2026-05-07 11:24 | 52.83902 | -27.45958 | 38116 ft | 477 kts | 264° |
| 2026-05-07 11:25 | 52.82588 | -27.56687 | 38119 ft | 476 kts | 264° |
| 2026-05-07 11:25 | 52.81274 | -27.67375 | 38127 ft | 476 kts | 263° |
| 2026-05-07 11:26 | 52.79951 | -27.78025 | 38126 ft | 477 kts | 264° |
| 2026-05-07 11:26 | 52.78623 | -27.88665 | 38123 ft | 477 kts | 263° |
| 2026-05-07 11:27 | 52.77269 | -27.99400 | 38123 ft | 477 kts | 264° |
| 2026-05-07 11:27 | 52.75921 | -28.09994 | 38134 ft | 476 kts | 264° |
| 2026-05-07 11:28 | 52.74550 | -28.20709 | 38142 ft | 477 kts | 264° |
| 2026-05-07 11:28 | 52.73181 | -28.31322 | 38142 ft | 477 kts | 264° |
| 2026-05-07 11:29 | 52.71794 | -28.41992 | 38140 ft | 476 kts | 264° |
| 2026-05-07 11:29 | 52.70405 | -28.52599 | 38147 ft | 475 kts | 264° |
| 2026-05-07 11:30 | 52.69013 | -28.63158 | 38150 ft | 475 kts | 264° |
| 2026-05-07 11:30 | 52.67603 | -28.73763 | 38149 ft | 476 kts | 264° |
| 2026-05-07 11:31 | 52.66192 | -28.84319 | 38130 ft | 476 kts | 264° |
| 2026-05-07 11:31 | 52.64759 | -28.94932 | 38152 ft | 475 kts | 263° |
| 2026-05-07 11:32 | 52.62601 | -29.10792 | 38163 ft | 474 kts | 264° |
| 2026-05-07 11:33 | 52.61163 | -29.21273 | 38156 ft | 473 kts | 264° |
| 2026-05-07 11:33 | 52.59710 | -29.31766 | 38156 ft | 473 kts | 264° |
| 2026-05-07 11:34 | 52.58245 | -29.42291 | 38165 ft | 472 kts | 264° |
| 2026-05-07 11:34 | 52.56781 | -29.52727 | 38172 ft | 472 kts | 264° |
| 2026-05-07 11:35 | 52.55303 | -29.63182 | 38183 ft | 472 kts | 264° |
| 2026-05-07 11:35 | 52.53810 | -29.73670 | 38180 ft | 471 kts | 263° |
| 2026-05-07 11:36 | 52.52318 | -29.84076 | 38178 ft | 471 kts | 263° |
| 2026-05-07 11:36 | 52.50806 | -29.94532 | 38180 ft | 470 kts | 263° |
| 2026-05-07 11:37 | 52.49506 | -30.04949 | 38198 ft | 466 kts | 267° |
| 2026-05-07 11:37 | 52.48423 | -30.15370 | 38183 ft | 466 kts | 267° |
| 2026-05-07 11:38 | 52.47324 | -30.25833 | 38199 ft | 467 kts | 267° |
| 2026-05-07 11:38 | 52.46218 | -30.36246 | 38186 ft | 466 kts | 267° |
| 2026-05-07 11:39 | 52.45104 | -30.46633 | 38193 ft | 466 kts | 267° |
| 2026-05-07 11:39 | 52.43973 | -30.57091 | 38202 ft | 466 kts | 267° |
| 2026-05-07 11:40 | 52.42838 | -30.67493 | 38211 ft | 466 kts | 266° |
| 2026-05-07 11:40 | 52.41693 | -30.77902 | 38194 ft | 465 kts | 266° |
| 2026-05-07 11:41 | 52.40544 | -30.88250 | 38191 ft | 466 kts | 266° |
| 2026-05-07 11:41 | 52.39382 | -30.98629 | 38199 ft | 465 kts | 266° |
| 2026-05-07 11:42 | 52.38211 | -31.08995 | 38191 ft | 466 kts | 266° |
| 2026-05-07 11:42 | 52.37029 | -31.19388 | 38191 ft | 466 kts | 266° |
| 2026-05-07 11:43 | 52.35841 | -31.29745 | 38192 ft | 467 kts | 266° |
| 2026-05-07 11:43 | 52.34632 | -31.40192 | 38187 ft | 466 kts | 266° |
| 2026-05-07 11:44 | 52.33429 | -31.50506 | 38196 ft | 467 kts | 266° |
| 2026-05-07 11:44 | 52.32208 | -31.60889 | 38208 ft | 467 kts | 266° |
| 2026-05-07 11:45 | 52.30972 | -31.71324 | 38201 ft | 468 kts | 265° |
| 2026-05-07 11:45 | 52.29732 | -31.81722 | 38197 ft | 468 kts | 265° |
| 2026-05-07 11:46 | 52.28480 | -31.92096 | 38204 ft | 470 kts | 265° |
| 2026-05-07 11:46 | 52.27210 | -32.02576 | 38200 ft | 470 kts | 265° |
| 2026-05-07 11:47 | 52.25940 | -32.12958 | 38204 ft | 471 kts | 265° |
| 2026-05-07 11:47 | 52.24650 | -32.23416 | 38217 ft | 471 kts | 265° |
| 2026-05-07 11:48 | 52.23360 | -32.33790 | 38210 ft | 470 kts | 265° |
| 2026-05-07 11:48 | 52.22053 | -32.44239 | 38232 ft | 470 kts | 265° |
| 2026-05-07 11:49 | 52.20743 | -32.54619 | 38223 ft | 470 kts | 265° |
| 2026-05-07 11:49 | 52.19427 | -32.64981 | 38229 ft | 470 kts | 265° |
| 2026-05-07 11:50 | 52.18098 | -32.75380 | 38213 ft | 471 kts | 264° |
| 2026-05-07 11:50 | 52.16758 | -32.85760 | 38222 ft | 472 kts | 265° |
| 2026-05-07 11:51 | 52.15402 | -32.96199 | 38215 ft | 471 kts | 264° |
| 2026-05-07 11:51 | 52.14044 | -33.06572 | 38225 ft | 472 kts | 264° |
| 2026-05-07 11:52 | 52.12673 | -33.16964 | 38220 ft | 471 kts | 265° |
| 2026-05-07 11:52 | 52.11292 | -33.27364 | 38218 ft | 471 kts | 265° |
| 2026-05-07 11:53 | 52.09909 | -33.37701 | 38221 ft | 472 kts | 265° |
| 2026-05-07 11:53 | 52.08506 | -33.48112 | 38238 ft | 472 kts | 265° |
| 2026-05-07 11:54 | 52.07104 | -33.58453 | 38217 ft | 473 kts | 264° |
| 2026-05-07 11:54 | 52.05678 | -33.68887 | 38229 ft | 473 kts | 264° |
| 2026-05-07 11:55 | 52.04247 | -33.79281 | 38225 ft | 474 kts | 264° |
| 2026-05-07 11:55 | 52.02810 | -33.89640 | 38229 ft | 474 kts | 264° |
| 2026-05-07 11:56 | 52.01355 | -34.00073 | 38229 ft | 474 kts | 264° |
| 2026-05-07 11:56 | 51.99891 | -34.10495 | 38226 ft | 475 kts | 264° |
| 2026-05-07 11:57 | 51.98426 | -34.20841 | 38222 ft | 474 kts | 264° |
| 2026-05-07 11:57 | 51.96951 | -34.31192 | 38222 ft | 474 kts | 264° |
| 2026-05-07 11:58 | 51.95461 | -34.41579 | 38222 ft | 475 kts | 264° |
| 2026-05-07 11:58 | 51.93965 | -34.51935 | 38225 ft | 474 kts | 264° |
| 2026-05-07 11:59 | 51.92456 | -34.62320 | 38229 ft | 474 kts | 264° |
| 2026-05-07 11:59 | 51.90941 | -34.72664 | 38225 ft | 474 kts | 263° |
| 2026-05-07 12:00 | 51.89417 | -34.83009 | 38220 ft | 474 kts | 263° |
| 2026-05-07 12:00 | 51.87885 | -34.93317 | 38229 ft | 473 kts | 263° |
| 2026-05-07 12:01 | 51.86356 | -35.03568 | 38228 ft | 473 kts | 264° |
| 2026-05-07 12:01 | 51.84801 | -35.13913 | 38240 ft | 473 kts | 263° |
| 2026-05-07 12:02 | 51.83248 | -35.24195 | 38250 ft | 474 kts | 263° |
| 2026-05-07 12:02 | 51.81680 | -35.34488 | 38246 ft | 472 kts | 263° |
| 2026-05-07 12:03 | 51.80109 | -35.44750 | 38260 ft | 473 kts | 263° |
| 2026-05-07 12:03 | 51.78527 | -35.55011 | 38262 ft | 473 kts | 263° |
| 2026-05-07 12:04 | 51.76946 | -35.65185 | 38273 ft | 471 kts | 263° |
| 2026-05-07 12:04 | 51.75352 | -35.75407 | 38265 ft | 472 kts | 263° |
| 2026-05-07 12:05 | 51.73746 | -35.85620 | 38269 ft | 472 kts | 263° |
| 2026-05-07 12:05 | 51.72130 | -35.95849 | 38277 ft | 472 kts | 263° |
| 2026-05-07 12:06 | 51.70503 | -36.06065 | 38268 ft | 472 kts | 263° |
| 2026-05-07 12:06 | 51.68868 | -36.16293 | 38266 ft | 472 kts | 263° |
| 2026-05-07 12:07 | 51.67227 | -36.26480 | 38257 ft | 472 kts | 263° |
| 2026-05-07 12:07 | 51.65574 | -36.36673 | 38251 ft | 473 kts | 263° |
| 2026-05-07 12:08 | 51.63910 | -36.46881 | 38243 ft | 473 kts | 263° |
| 2026-05-07 12:08 | 51.62240 | -36.57067 | 38248 ft | 473 kts | 263° |
| 2026-05-07 12:09 | 51.60561 | -36.67252 | 38245 ft | 474 kts | 262° |
| 2026-05-07 12:09 | 51.58873 | -36.77423 | 38248 ft | 474 kts | 262° |
| 2026-05-07 12:10 | 51.57167 | -36.87632 | 38246 ft | 474 kts | 262° |
| 2026-05-07 12:10 | 51.55455 | -36.97823 | 38248 ft | 474 kts | 262° |
| 2026-05-07 12:11 | 51.53741 | -37.07971 | 38248 ft | 474 kts | 262° |
| 2026-05-07 12:11 | 51.52015 | -37.18127 | 38249 ft | 474 kts | 262° |
| 2026-05-07 12:12 | 51.50275 | -37.28301 | 38258 ft | 473 kts | 262° |
| 2026-05-07 12:12 | 51.48527 | -37.38470 | 38244 ft | 474 kts | 262° |
| 2026-05-07 12:13 | 51.46776 | -37.48590 | 38247 ft | 473 kts | 262° |
| 2026-05-07 12:13 | 51.45000 | -37.58801 | 38249 ft | 474 kts | 262° |
| 2026-05-07 12:14 | 51.43226 | -37.68951 | 38246 ft | 475 kts | 261° |
| 2026-05-07 12:14 | 51.41435 | -37.79137 | 38251 ft | 475 kts | 261° |
| 2026-05-07 12:15 | 51.39635 | -37.89298 | 38253 ft | 476 kts | 261° |
| 2026-05-07 12:15 | 51.37832 | -37.99434 | 38253 ft | 477 kts | 261° |
| 2026-05-07 12:16 | 51.36021 | -38.09555 | 38263 ft | 476 kts | 261° |
| 2026-05-07 12:16 | 51.34199 | -38.19680 | 38270 ft | 475 kts | 261° |
| 2026-05-07 12:17 | 51.32371 | -38.29778 | 38269 ft | 476 kts | 261° |
| 2026-05-07 12:17 | 51.30531 | -38.39891 | 38268 ft | 475 kts | 261° |
| 2026-05-07 12:18 | 51.28677 | -38.50029 | 38268 ft | 476 kts | 261° |
| 2026-05-07 12:18 | 51.26812 | -38.60169 | 38272 ft | 476 kts | 261° |
| 2026-05-07 12:19 | 51.24949 | -38.70233 | 38273 ft | 476 kts | 260° |
| 2026-05-07 12:19 | 51.23066 | -38.80362 | 38269 ft | 476 kts | 260° |
| 2026-05-07 12:20 | 51.21179 | -38.90446 | 38267 ft | 476 kts | 260° |
| 2026-05-07 12:20 | 51.19287 | -39.00509 | 38269 ft | 476 kts | 260° |
| 2026-05-07 12:21 | 51.17386 | -39.10564 | 38267 ft | 476 kts | 260° |
| 2026-05-07 12:21 | 51.15472 | -39.20636 | 38262 ft | 476 kts | 260° |
| 2026-05-07 12:22 | 51.13544 | -39.30720 | 38260 ft | 475 kts | 260° |
| 2026-05-07 12:22 | 51.11617 | -39.40749 | 38257 ft | 476 kts | 260° |
| 2026-05-07 12:23 | 51.09672 | -39.50815 | 38259 ft | 476 kts | 260° |
| 2026-05-07 12:23 | 51.07728 | -39.60824 | 38256 ft | 475 kts | 260° |
| 2026-05-07 12:24 | 51.05775 | -39.70818 | 38256 ft | 477 kts | 259° |
| 2026-05-07 12:24 | 51.03806 | -39.80844 | 38255 ft | 477 kts | 259° |
| 2026-05-07 12:25 | 51.01825 | -39.90870 | 38251 ft | 477 kts | 259° |
| 2026-05-07 12:25 | 51.00046 | -40.00934 | 38250 ft | 472 kts | 263° |
| 2026-05-07 12:26 | 50.98857 | -40.11102 | 38247 ft | 469 kts | 267° |
| 2026-05-07 12:26 | 50.97807 | -40.21223 | 38246 ft | 468 kts | 267° |
| 2026-05-07 12:27 | 50.96736 | -40.31412 | 38248 ft | 468 kts | 267° |
| 2026-05-07 12:27 | 50.95655 | -40.41584 | 38246 ft | 470 kts | 267° |
| 2026-05-07 12:28 | 50.94561 | -40.51777 | 38245 ft | 470 kts | 266° |
| 2026-05-07 12:28 | 50.93466 | -40.61874 | 38248 ft | 469 kts | 267° |
| 2026-05-07 12:29 | 50.92351 | -40.72072 | 38248 ft | 469 kts | 266° |
| 2026-05-07 12:29 | 50.91232 | -40.82230 | 38247 ft | 470 kts | 266° |
| 2026-05-07 12:30 | 50.90108 | -40.92346 | 38247 ft | 469 kts | 265° |
| 2026-05-07 12:30 | 50.88965 | -41.02533 | 38242 ft | 470 kts | 265° |
| 2026-05-07 12:31 | 50.87822 | -41.12657 | 38239 ft | 470 kts | 265° |
| 2026-05-07 12:31 | 50.86667 | -41.22792 | 38240 ft | 470 kts | 265° |
| 2026-05-07 12:32 | 50.85494 | -41.32990 | 38239 ft | 470 kts | 265° |
| 2026-05-07 12:32 | 50.84325 | -41.43086 | 38235 ft | 469 kts | 265° |
| 2026-05-07 12:33 | 50.82552 | -41.58265 | 38233 ft | 469 kts | 265° |
| 2026-05-07 12:33 | 50.81364 | -41.68325 | 38230 ft | 470 kts | 264° |
| 2026-05-07 12:34 | 50.80157 | -41.78467 | 38445 ft | 470 kts | 264° |
| 2026-05-07 12:34 | 50.79553 | -41.83508 | 38290 ft | 469 kts | 264° |
| 2026-05-07 12:34 | 50.78946 | -41.88560 | 38245 ft | 468 kts | 264° |
| 2026-05-07 12:35 | 50.77736 | -41.98578 | 38228 ft | 468 kts | 264° |
| 2026-05-07 12:35 | 50.76506 | -42.08671 | 38228 ft | 468 kts | 264° |
| 2026-05-07 12:36 | 50.75278 | -42.18682 | 38230 ft | 468 kts | 264° |
| 2026-05-07 12:36 | 50.74034 | -42.28742 | 38228 ft | 468 kts | 264° |
| 2026-05-07 12:37 | 50.72780 | -42.38798 | 38228 ft | 468 kts | 264° |
| 2026-05-07 12:37 | 50.71522 | -42.48819 | 38228 ft | 469 kts | 264° |
| 2026-05-07 12:38 | 50.70256 | -42.58851 | 38230 ft | 469 kts | 263° |
| 2026-05-07 12:38 | 50.68970 | -42.68938 | 38227 ft | 469 kts | 263° |
| 2026-05-07 12:39 | 50.67690 | -42.78916 | 38228 ft | 469 kts | 263° |
| 2026-05-07 12:39 | 50.66389 | -42.88985 | 38227 ft | 469 kts | 263° |
| 2026-05-07 12:40 | 50.65081 | -42.99032 | 38224 ft | 469 kts | 263° |
| 2026-05-07 12:40 | 50.63769 | -43.09049 | 38225 ft | 469 kts | 263° |
| 2026-05-07 12:41 | 50.62451 | -43.19041 | 38219 ft | 469 kts | 262° |
| 2026-05-07 12:41 | 50.61121 | -43.29041 | 38221 ft | 468 kts | 262° |
| 2026-05-07 12:42 | 50.59787 | -43.39012 | 38224 ft | 468 kts | 262° |
| 2026-05-07 12:42 | 50.58444 | -43.48967 | 38220 ft | 468 kts | 262° |
| 2026-05-07 12:43 | 50.57089 | -43.58957 | 38222 ft | 468 kts | 262° |
| 2026-05-07 12:43 | 50.55722 | -43.68961 | 38230 ft | 468 kts | 261° |
| 2026-05-07 12:44 | 50.54355 | -43.78907 | 38225 ft | 468 kts | 261° |
| 2026-05-07 12:44 | 50.52974 | -43.88870 | 38223 ft | 468 kts | 261° |
| 2026-05-07 12:45 | 50.51594 | -43.98764 | 38224 ft | 468 kts | 261° |
| 2026-05-07 12:45 | 50.50197 | -44.08720 | 38224 ft | 469 kts | 261° |
| 2026-05-07 12:46 | 50.48789 | -44.18679 | 38223 ft | 469 kts | 261° |
| 2026-05-07 12:46 | 50.47369 | -44.28657 | 38224 ft | 469 kts | 261° |
| 2026-05-07 12:47 | 50.45954 | -44.38545 | 38223 ft | 468 kts | 261° |
| 2026-05-07 12:47 | 50.44524 | -44.48461 | 38227 ft | 469 kts | 261° |
| 2026-05-07 12:48 | 50.43084 | -44.58394 | 38230 ft | 469 kts | 261° |
| 2026-05-07 12:48 | 50.41637 | -44.68309 | 38235 ft | 469 kts | 260° |
| 2026-05-07 12:49 | 50.40174 | -44.78258 | 38234 ft | 470 kts | 260° |
| 2026-05-07 12:49 | 50.38702 | -44.88215 | 38239 ft | 470 kts | 260° |
| 2026-05-07 12:50 | 50.37231 | -44.98105 | 38233 ft | 470 kts | 260° |
| 2026-05-07 12:50 | 50.35744 | -45.08025 | 38230 ft | 470 kts | 260° |
| 2026-05-07 12:51 | 50.34242 | -45.17989 | 38218 ft | 469 kts | 259° |
| 2026-05-07 12:51 | 50.32748 | -45.27836 | 38217 ft | 469 kts | 259° |
| 2026-05-07 12:52 | 50.31240 | -45.37727 | 38219 ft | 469 kts | 259° |
| 2026-05-07 12:52 | 50.29728 | -45.47571 | 38220 ft | 469 kts | 259° |
| 2026-05-07 12:53 | 50.28196 | -45.57491 | 38218 ft | 469 kts | 259° |
| 2026-05-07 12:53 | 50.26666 | -45.67332 | 38218 ft | 469 kts | 259° |
| 2026-05-07 12:54 | 50.25121 | -45.77203 | 38221 ft | 468 kts | 259° |
| 2026-05-07 12:54 | 50.23581 | -45.86988 | 38220 ft | 468 kts | 259° |
| 2026-05-07 12:55 | 50.22029 | -45.96804 | 38221 ft | 468 kts | 259° |
| 2026-05-07 12:55 | 50.20461 | -46.06652 | 38219 ft | 467 kts | 258° |
| 2026-05-07 12:56 | 50.18895 | -46.16428 | 38221 ft | 467 kts | 258° |
| 2026-05-07 12:56 | 50.17313 | -46.26250 | 38224 ft | 468 kts | 258° |
| 2026-05-07 12:57 | 50.15726 | -46.36033 | 38220 ft | 467 kts | 258° |
| 2026-05-07 12:57 | 50.14138 | -46.45773 | 38222 ft | 467 kts | 258° |
| 2026-05-07 12:58 | 50.12535 | -46.55554 | 38221 ft | 466 kts | 258° |
| 2026-05-07 12:58 | 50.10931 | -46.65286 | 38220 ft | 466 kts | 257° |
| 2026-05-07 12:59 | 50.09311 | -46.75051 | 38221 ft | 467 kts | 257° |
| 2026-05-07 12:59 | 50.07687 | -46.84787 | 38221 ft | 467 kts | 257° |
| 2026-05-07 13:00 | 50.06059 | -46.94488 | 38221 ft | 466 kts | 257° |
| 2026-05-07 13:00 | 50.04428 | -47.04151 | 38221 ft | 465 kts | 257° |
| 2026-05-07 13:01 | 50.02781 | -47.13860 | 38222 ft | 465 kts | 257° |
| 2026-05-07 13:01 | 50.01127 | -47.23561 | 38212 ft | 465 kts | 257° |
| 2026-05-07 13:02 | 49.99477 | -47.33179 | 38212 ft | 464 kts | 257° |
| 2026-05-07 13:02 | 49.97810 | -47.42836 | 38216 ft | 464 kts | 257° |
| 2026-05-07 13:03 | 49.96144 | -47.52441 | 38220 ft | 464 kts | 257° |
| 2026-05-07 13:03 | 49.94465 | -47.62075 | 38214 ft | 463 kts | 257° |
| 2026-05-07 13:04 | 49.92784 | -47.71651 | 38214 ft | 462 kts | 256° |
| 2026-05-07 13:04 | 49.91094 | -47.81239 | 38215 ft | 462 kts | 256° |
| 2026-05-07 13:05 | 49.89397 | -47.90815 | 38210 ft | 461 kts | 256° |
| 2026-05-07 13:05 | 49.87698 | -48.00357 | 38205 ft | 461 kts | 256° |
| 2026-05-07 13:06 | 49.85988 | -48.09902 | 38214 ft | 461 kts | 256° |
| 2026-05-07 13:06 | 49.84270 | -48.19444 | 38208 ft | 461 kts | 256° |
| 2026-05-07 13:07 | 49.82554 | -48.28926 | 38210 ft | 460 kts | 256° |
| 2026-05-07 13:07 | 49.80827 | -48.38408 | 38214 ft | 459 kts | 256° |
| 2026-05-07 13:08 | 49.79099 | -48.47860 | 38213 ft | 459 kts | 256° |
| 2026-05-07 13:08 | 49.77359 | -48.57325 | 38215 ft | 459 kts | 256° |
| 2026-05-07 13:09 | 49.75612 | -48.66772 | 38216 ft | 457 kts | 255° |
| 2026-05-07 13:09 | 49.73867 | -48.76169 | 38214 ft | 457 kts | 255° |
| 2026-05-07 13:10 | 49.72116 | -48.85547 | 38218 ft | 457 kts | 255° |
| 2026-05-07 13:10 | 49.70354 | -48.94932 | 38215 ft | 457 kts | 255° |
| 2026-05-07 13:11 | 49.68580 | -49.04340 | 38218 ft | 455 kts | 255° |
| 2026-05-07 13:11 | 49.66819 | -49.13631 | 38214 ft | 455 kts | 255° |
| 2026-05-07 13:12 | 49.65035 | -49.22991 | 38206 ft | 454 kts | 255° |
| 2026-05-07 13:12 | 49.63252 | -49.32308 | 38201 ft | 453 kts | 255° |
| 2026-05-07 13:13 | 49.61472 | -49.41562 | 38205 ft | 453 kts | 255° |
| 2026-05-07 13:13 | 49.59685 | -49.50798 | 38200 ft | 452 kts | 254° |
| 2026-05-07 13:14 | 49.57887 | -49.60052 | 38205 ft | 452 kts | 255° |
| 2026-05-07 13:14 | 49.56090 | -49.69246 | 38206 ft | 451 kts | 253° |
| 2026-05-07 13:15 | 49.54283 | -49.78456 | 38202 ft | 449 kts | 253° |
| 2026-05-07 13:15 | 49.52473 | -49.87623 | 38208 ft | 449 kts | 253° |
| 2026-05-07 13:16 | 49.50667 | -49.96728 | 38205 ft | 448 kts | 253° |
| 2026-05-07 13:16 | 49.48642 | -50.05756 | 38204 ft | 448 kts | 250° |
| 2026-05-07 13:17 | 49.46498 | -50.14717 | 38203 ft | 448 kts | 250° |
| 2026-05-07 13:17 | 49.44349 | -50.23650 | 38201 ft | 447 kts | 250° |
| 2026-05-07 13:18 | 49.42194 | -50.32560 | 38201 ft | 447 kts | 250° |
| 2026-05-07 13:18 | 49.40043 | -50.41415 | 38195 ft | 446 kts | 250° |
| 2026-05-07 13:19 | 49.37874 | -50.50308 | 38190 ft | 445 kts | 250° |
| 2026-05-07 13:19 | 49.35700 | -50.59180 | 38192 ft | 445 kts | 250° |
| 2026-05-07 13:20 | 49.33521 | -50.68037 | 38190 ft | 444 kts | 249° |
| 2026-05-07 13:20 | 49.31356 | -50.76808 | 38192 ft | 445 kts | 249° |
| 2026-05-07 13:21 | 49.29169 | -50.85635 | 38184 ft | 444 kts | 249° |
| 2026-05-07 13:21 | 49.26977 | -50.94441 | 38181 ft | 444 kts | 249° |
| 2026-05-07 13:22 | 49.24777 | -51.03243 | 38181 ft | 444 kts | 249° |
| 2026-05-07 13:22 | 49.22575 | -51.12026 | 38179 ft | 444 kts | 249° |
| 2026-05-07 13:23 | 49.20369 | -51.20786 | 38178 ft | 444 kts | 248° |
| 2026-05-07 13:23 | 49.18153 | -51.29547 | 38179 ft | 443 kts | 248° |
| 2026-05-07 13:24 | 49.15932 | -51.38301 | 38181 ft | 444 kts | 248° |
| 2026-05-07 13:24 | 49.13700 | -51.47059 | 38181 ft | 443 kts | 248° |
| 2026-05-07 13:25 | 49.11464 | -51.55794 | 38179 ft | 444 kts | 248° |
| 2026-05-07 13:25 | 49.09214 | -51.64565 | 38178 ft | 443 kts | 248° |
| 2026-05-07 13:26 | 49.06970 | -51.73265 | 38179 ft | 442 kts | 246° |
| 2026-05-07 13:26 | 49.04724 | -51.81933 | 38184 ft | 443 kts | 247° |
| 2026-05-07 13:27 | 49.02470 | -51.90599 | 38184 ft | 442 kts | 246° |
| 2026-05-07 13:27 | 49.00203 | -51.99286 | 38186 ft | 442 kts | 246° |
| 2026-05-07 13:28 | 48.97922 | -52.07914 | 38177 ft | 441 kts | 246° |
| 2026-05-07 13:28 | 48.95627 | -52.16499 | 38176 ft | 441 kts | 246° |
| 2026-05-07 13:29 | 48.93315 | -52.25109 | 38176 ft | 442 kts | 246° |
| 2026-05-07 13:29 | 48.90987 | -52.33746 | 38173 ft | 443 kts | 246° |
| 2026-05-07 13:30 | 48.88649 | -52.42385 | 38167 ft | 442 kts | 246° |
| 2026-05-07 13:30 | 48.86317 | -52.50977 | 38159 ft | 441 kts | 246° |
| 2026-05-07 13:31 | 48.83972 | -52.59579 | 38158 ft | 440 kts | 246° |
| 2026-05-07 13:31 | 48.81633 | -52.68131 | 38153 ft | 441 kts | 245° |
| 2026-05-07 13:32 | 48.79297 | -52.76637 | 38153 ft | 441 kts | 245° |
| 2026-05-07 13:32 | 48.76932 | -52.85218 | 38152 ft | 441 kts | 245° |
| 2026-05-07 13:33 | 48.74573 | -52.93757 | 38150 ft | 441 kts | 245° |
| 2026-05-07 13:33 | 48.72203 | -53.02296 | 38149 ft | 440 kts | 245° |
| 2026-05-07 13:34 | 48.68650 | -53.15039 | 38148 ft | 439 kts | 245° |
| 2026-05-07 13:35 | 48.66274 | -53.23525 | 38144 ft | 439 kts | 244° |
| 2026-05-07 13:35 | 48.63900 | -53.31971 | 38143 ft | 438 kts | 244° |
| 2026-05-07 13:36 | 48.61513 | -53.40423 | 38136 ft | 439 kts | 244° |
| 2026-05-07 13:36 | 48.59123 | -53.48869 | 38131 ft | 438 kts | 244° |
| 2026-05-07 13:37 | 48.56727 | -53.57304 | 38128 ft | 437 kts | 244° |
| 2026-05-07 13:37 | 48.54340 | -53.65678 | 38127 ft | 437 kts | 243° |
| 2026-05-07 13:38 | 48.51948 | -53.74032 | 38130 ft | 437 kts | 244° |
| 2026-05-07 13:38 | 48.49551 | -53.82391 | 38126 ft | 435 kts | 243° |
| 2026-05-07 13:39 | 48.47154 | -53.90713 | 38128 ft | 435 kts | 243° |
| 2026-05-07 13:39 | 48.44745 | -53.99050 | 38125 ft | 434 kts | 243° |
| 2026-05-07 13:40 | 48.42333 | -54.07368 | 38122 ft | 436 kts | 243° |
| 2026-05-07 13:40 | 48.39910 | -54.15695 | 38110 ft | 435 kts | 243° |
| 2026-05-07 13:41 | 48.37484 | -54.23999 | 38113 ft | 434 kts | 243° |
| 2026-05-07 13:41 | 48.35053 | -54.32296 | 38109 ft | 434 kts | 243° |
| 2026-05-07 13:42 | 48.32621 | -54.40573 | 38101 ft | 435 kts | 243° |
| 2026-05-07 13:42 | 48.30183 | -54.48832 | 38099 ft | 434 kts | 243° |
| 2026-05-07 13:43 | 48.27747 | -54.57061 | 38098 ft | 434 kts | 243° |
| 2026-05-07 13:43 | 48.25293 | -54.65330 | 38103 ft | 434 kts | 242° |
| 2026-05-07 13:44 | 48.22844 | -54.73548 | 38107 ft | 434 kts | 242° |
| 2026-05-07 13:44 | 48.20377 | -54.81794 | 38094 ft | 435 kts | 242° |
| 2026-05-07 13:45 | 48.17910 | -54.90017 | 38095 ft | 435 kts | 242° |
| 2026-05-07 13:45 | 48.15422 | -54.98284 | 38097 ft | 435 kts | 242° |
| 2026-05-07 13:45 | 48.14182 | -55.02398 | 37835 ft | 434 kts | 242° |
| 2026-05-07 13:46 | 48.12934 | -55.06529 | 38018 ft | 435 kts | 242° |
| 2026-05-07 13:46 | 48.10442 | -55.14751 | 38085 ft | 435 kts | 242° |
| 2026-05-07 13:47 | 48.07958 | -55.22922 | 38081 ft | 435 kts | 242° |
| 2026-05-07 13:47 | 48.05440 | -55.31178 | 38080 ft | 435 kts | 242° |
| 2026-05-07 13:48 | 48.02932 | -55.39370 | 38083 ft | 435 kts | 242° |
| 2026-05-07 13:48 | 48.00421 | -55.47554 | 38080 ft | 436 kts | 242° |
| 2026-05-07 13:49 | 47.97889 | -55.55772 | 38080 ft | 437 kts | 242° |
| 2026-05-07 13:49 | 47.95351 | -55.63982 | 38080 ft | 437 kts | 242° |
| 2026-05-07 13:50 | 47.92807 | -55.72185 | 38085 ft | 437 kts | 241° |
| 2026-05-07 13:50 | 47.90273 | -55.80328 | 38072 ft | 437 kts | 241° |
| 2026-05-07 13:51 | 47.87701 | -55.88565 | 38076 ft | 437 kts | 242° |
| 2026-05-07 13:51 | 47.85155 | -55.96706 | 38080 ft | 437 kts | 241° |
| 2026-05-07 13:52 | 47.82590 | -56.04866 | 38062 ft | 438 kts | 241° |
| 2026-05-07 13:52 | 47.79989 | -56.13109 | 38053 ft | 437 kts | 242° |
| 2026-05-07 13:53 | 47.77420 | -56.21240 | 38049 ft | 437 kts | 241° |
| 2026-05-07 13:53 | 47.74832 | -56.29395 | 38043 ft | 437 kts | 242° |
| 2026-05-07 13:54 | 47.72244 | -56.37526 | 38039 ft | 437 kts | 242° |
| 2026-05-07 13:54 | 47.69652 | -56.45645 | 38038 ft | 438 kts | 242° |
| 2026-05-07 13:55 | 47.67043 | -56.53792 | 38038 ft | 437 kts | 242° |
| 2026-05-07 13:55 | 47.64440 | -56.61883 | 38033 ft | 438 kts | 242° |
| 2026-05-07 13:56 | 47.61826 | -56.69997 | 38024 ft | 437 kts | 241° |
| 2026-05-07 13:56 | 47.59209 | -56.78086 | 38029 ft | 437 kts | 241° |
| 2026-05-07 13:57 | 47.56582 | -56.86188 | 38020 ft | 437 kts | 241° |
| 2026-05-07 13:57 | 47.53944 | -56.94289 | 38012 ft | 436 kts | 242° |
| 2026-05-07 13:58 | 47.51320 | -57.02330 | 38016 ft | 436 kts | 241° |
| 2026-05-07 13:58 | 47.48694 | -57.10348 | 38020 ft | 435 kts | 241° |
| 2026-05-07 13:59 | 47.46043 | -57.18422 | 38015 ft | 436 kts | 241° |
| 2026-05-07 13:59 | 47.43409 | -57.26411 | 38018 ft | 435 kts | 242° |
| 2026-05-07 14:00 | 47.40771 | -57.34392 | 38013 ft | 436 kts | 242° |
| 2026-05-07 14:00 | 47.38113 | -57.42408 | 38017 ft | 436 kts | 242° |
| 2026-05-07 14:01 | 47.35450 | -57.50411 | 38011 ft | 435 kts | 242° |
| 2026-05-07 14:01 | 47.32784 | -57.58404 | 38005 ft | 435 kts | 242° |
| 2026-05-07 14:02 | 47.30116 | -57.66373 | 38001 ft | 434 kts | 241° |
| 2026-05-07 14:02 | 47.27459 | -57.74288 | 38002 ft | 434 kts | 241° |
| 2026-05-07 14:03 | 47.24778 | -57.82249 | 37999 ft | 434 kts | 241° |
| 2026-05-07 14:03 | 47.22117 | -57.90130 | 37990 ft | 433 kts | 241° |
| 2026-05-07 14:04 | 47.19428 | -57.98064 | 37989 ft | 433 kts | 242° |
| 2026-05-07 14:04 | 47.16751 | -58.05940 | 37990 ft | 433 kts | 242° |
| 2026-05-07 14:05 | 47.14073 | -58.13802 | 37972 ft | 433 kts | 242° |
| 2026-05-07 14:05 | 47.11379 | -58.21674 | 37967 ft | 432 kts | 242° |
| 2026-05-07 14:06 | 47.08706 | -58.29478 | 37969 ft | 431 kts | 242° |
| 2026-05-07 14:06 | 47.05999 | -58.37340 | 37962 ft | 432 kts | 242° |
| 2026-05-07 14:07 | 47.03302 | -58.45159 | 37949 ft | 431 kts | 242° |
| 2026-05-07 14:07 | 47.00611 | -58.52939 | 37953 ft | 431 kts | 242° |
| 2026-05-07 14:08 | 46.97897 | -58.60755 | 37955 ft | 430 kts | 242° |
| 2026-05-07 14:08 | 46.95199 | -58.68505 | 37938 ft | 429 kts | 242° |
| 2026-05-07 14:09 | 46.92500 | -58.76238 | 37947 ft | 429 kts | 242° |
| 2026-05-07 14:09 | 46.89791 | -58.83979 | 37949 ft | 428 kts | 242° |
| 2026-05-07 14:10 | 46.87086 | -58.91680 | 37942 ft | 427 kts | 242° |
| 2026-05-07 14:10 | 46.84387 | -58.99340 | 37930 ft | 425 kts | 242° |
| 2026-05-07 14:11 | 46.81686 | -59.06991 | 37927 ft | 424 kts | 242° |
| 2026-05-07 14:11 | 46.78988 | -59.14608 | 37933 ft | 424 kts | 242° |
| 2026-05-07 14:12 | 46.76291 | -59.22203 | 37922 ft | 424 kts | 242° |
| 2026-05-07 14:12 | 46.73579 | -59.29812 | 37923 ft | 424 kts | 243° |
| 2026-05-07 14:13 | 46.70878 | -59.37382 | 37904 ft | 423 kts | 243° |
| 2026-05-07 14:13 | 46.68164 | -59.44952 | 37917 ft | 424 kts | 243° |
| 2026-05-07 14:14 | 46.65442 | -59.52531 | 37898 ft | 423 kts | 243° |
| 2026-05-07 14:14 | 46.62729 | -59.60060 | 37889 ft | 422 kts | 243° |
| 2026-05-07 14:15 | 46.60008 | -59.67588 | 37899 ft | 421 kts | 242° |
| 2026-05-07 14:15 | 46.57289 | -59.75088 | 37882 ft | 421 kts | 242° |
| 2026-05-07 14:16 | 46.54567 | -59.82576 | 37890 ft | 420 kts | 242° |
| 2026-05-07 14:16 | 46.51859 | -59.90015 | 37867 ft | 419 kts | 242° |
| 2026-05-07 14:17 | 46.49127 | -59.97493 | 37869 ft | 419 kts | 242° |
| 2026-05-07 14:17 | 46.46403 | -60.04922 | 37859 ft | 419 kts | 242° |
| 2026-05-07 14:18 | 46.43658 | -60.12392 | 37864 ft | 419 kts | 242° |
| 2026-05-07 14:18 | 46.40926 | -60.19806 | 37872 ft | 419 kts | 242° |
| 2026-05-07 14:19 | 46.38186 | -60.27222 | 37858 ft | 419 kts | 243° |
| 2026-05-07 14:19 | 46.35439 | -60.34638 | 37866 ft | 419 kts | 243° |
| 2026-05-07 14:20 | 46.32692 | -60.42033 | 37844 ft | 418 kts | 243° |
| 2026-05-07 14:20 | 46.29956 | -60.49377 | 37843 ft | 418 kts | 243° |
| 2026-05-07 14:21 | 46.27195 | -60.56765 | 37842 ft | 417 kts | 243° |
| 2026-05-07 14:21 | 46.24450 | -60.64094 | 37844 ft | 417 kts | 243° |
| 2026-05-07 14:22 | 46.21701 | -60.71411 | 37832 ft | 415 kts | 242° |
| 2026-05-07 14:22 | 46.18957 | -60.78700 | 37805 ft | 415 kts | 242° |
| 2026-05-07 14:23 | 46.16201 | -60.85998 | 37816 ft | 415 kts | 242° |
| 2026-05-07 14:23 | 46.13446 | -60.93274 | 37824 ft | 414 kts | 242° |
| 2026-05-07 14:24 | 46.10698 | -61.00519 | 37814 ft | 415 kts | 242° |
| 2026-05-07 14:24 | 46.07917 | -61.07816 | 37803 ft | 414 kts | 242° |
| 2026-05-07 14:25 | 46.05172 | -61.15010 | 37811 ft | 413 kts | 243° |
| 2026-05-07 14:25 | 46.02410 | -61.22224 | 37803 ft | 413 kts | 242° |
| 2026-05-07 14:26 | 45.99639 | -61.29449 | 37797 ft | 412 kts | 243° |
| 2026-05-07 14:26 | 45.96874 | -61.36635 | 37806 ft | 411 kts | 243° |
| 2026-05-07 14:27 | 45.94132 | -61.43747 | 37803 ft | 411 kts | 243° |
| 2026-05-07 14:27 | 45.91361 | -61.50904 | 37809 ft | 410 kts | 242° |
| 2026-05-07 14:28 | 45.88593 | -61.58046 | 37797 ft | 409 kts | 243° |
| 2026-05-07 14:28 | 45.85838 | -61.65132 | 37796 ft | 409 kts | 242° |
| 2026-05-07 14:29 | 45.83071 | -61.72224 | 37784 ft | 408 kts | 242° |
| 2026-05-07 14:29 | 45.80303 | -61.79304 | 37782 ft | 407 kts | 242° |
| 2026-05-07 14:30 | 45.77556 | -61.86326 | 37783 ft | 407 kts | 242° |
| 2026-05-07 14:30 | 45.74773 | -61.93402 | 37771 ft | 408 kts | 243° |
| 2026-05-07 14:31 | 45.72004 | -62.00447 | 37757 ft | 407 kts | 242° |
| 2026-05-07 14:31 | 45.69222 | -62.07502 | 37767 ft | 408 kts | 242° |
| 2026-05-07 14:32 | 45.66437 | -62.14524 | 37746 ft | 407 kts | 242° |
| 2026-05-07 14:32 | 45.63634 | -62.21591 | 37756 ft | 408 kts | 242° |
| 2026-05-07 14:33 | 45.60841 | -62.28614 | 37747 ft | 405 kts | 243° |
| 2026-05-07 14:33 | 45.58058 | -62.35590 | 37749 ft | 404 kts | 242° |
| 2026-05-07 14:34 | 45.55285 | -62.42538 | 37744 ft | 404 kts | 242° |
| 2026-05-07 14:34 | 45.52493 | -62.49488 | 37741 ft | 403 kts | 243° |
| 2026-05-07 14:35 | 45.49702 | -62.56439 | 37736 ft | 402 kts | 242° |
| 2026-05-07 14:35 | 45.46911 | -62.63369 | 37737 ft | 402 kts | 242° |
| 2026-05-07 14:36 | 45.44129 | -62.70255 | 37752 ft | 402 kts | 242° |
| 2026-05-07 14:36 | 45.41346 | -62.77124 | 37739 ft | 402 kts | 242° |
| 2026-05-07 14:37 | 45.38550 | -62.84028 | 37733 ft | 401 kts | 242° |
| 2026-05-07 14:37 | 45.34353 | -62.94329 | 37743 ft | 400 kts | 242° |
| 2026-05-07 14:38 | 45.31578 | -63.01134 | 37745 ft | 401 kts | 243° |
| 2026-05-07 14:38 | 45.28787 | -63.07947 | 37754 ft | 398 kts | 242° |
| 2026-05-07 14:39 | 45.26001 | -63.14747 | 37765 ft | 397 kts | 243° |
| 2026-05-07 14:39 | 45.23233 | -63.21477 | 37748 ft | 396 kts | 242° |
| 2026-05-07 14:40 | 45.20443 | -63.28235 | 37775 ft | 394 kts | 242° |
| 2026-05-07 14:40 | 45.17692 | -63.34891 | 37771 ft | 392 kts | 243° |
| 2026-05-07 14:41 | 45.14935 | -63.41552 | 37779 ft | 392 kts | 242° |
| 2026-05-07 14:41 | 45.12166 | -63.48225 | 37790 ft | 389 kts | 242° |
| 2026-05-07 14:42 | 45.09417 | -63.54824 | 37772 ft | 389 kts | 242° |
| 2026-05-07 14:42 | 45.06691 | -63.61356 | 37778 ft | 387 kts | 242° |
| 2026-05-07 14:43 | 45.03945 | -63.67925 | 37759 ft | 388 kts | 242° |
| 2026-05-07 14:43 | 45.01196 | -63.74473 | 37766 ft | 387 kts | 242° |
| 2026-05-07 14:44 | 44.98468 | -63.80973 | 37759 ft | 386 kts | 242° |
| 2026-05-07 14:44 | 44.95726 | -63.87489 | 37763 ft | 382 kts | 242° |
| 2026-05-07 14:45 | 44.93021 | -63.93886 | 37754 ft | 383 kts | 242° |
| 2026-05-07 14:45 | 44.90306 | -64.00315 | 37745 ft | 377 kts | 241° |
| 2026-05-07 14:46 | 44.87622 | -64.06643 | 37744 ft | 376 kts | 242° |
| 2026-05-07 14:46 | 44.84929 | -64.12981 | 37745 ft | 376 kts | 241° |
| 2026-05-07 14:47 | 44.82257 | -64.19254 | 37608 ft | 372 kts | 242° |
| 2026-05-07 14:47 | 44.80925 | -64.22376 | 37025 ft | 371 kts | 241° |
| 2026-05-07 14:47 | 44.79599 | -64.25490 | 36206 ft | 373 kts | 241° |
| 2026-05-07 14:48 | 44.78275 | -64.28588 | 35510 ft | 375 kts | 240° |
| 2026-05-07 14:48 | 44.76923 | -64.31741 | 34889 ft | 375 kts | 241° |
| 2026-05-07 14:48 | 44.75590 | -64.34851 | 34306 ft | 374 kts | 241° |
| 2026-05-07 14:48 | 44.74259 | -64.37958 | 33895 ft | 370 kts | 241° |
| 2026-05-07 14:49 | 44.72936 | -64.41044 | 33743 ft | 372 kts | 240° |
| 2026-05-07 14:49 | 44.71579 | -64.44203 | 33737 ft | 374 kts | 240° |
| 2026-05-07 14:49 | 44.68890 | -64.50440 | 33733 ft | 375 kts | 241° |
| 2026-05-07 14:50 | 44.66198 | -64.56676 | 33735 ft | 375 kts | 241° |
| 2026-05-07 14:50 | 44.63492 | -64.62934 | 33730 ft | 374 kts | 241° |
| 2026-05-07 14:51 | 44.60811 | -64.69121 | 33725 ft | 373 kts | 240° |
| 2026-05-07 14:51 | 44.58104 | -64.75356 | 33729 ft | 373 kts | 241° |
| 2026-05-07 14:52 | 44.55421 | -64.81512 | 33731 ft | 372 kts | 241° |
| 2026-05-07 14:52 | 44.52738 | -64.87667 | 33729 ft | 372 kts | 240° |
| 2026-05-07 14:53 | 44.50036 | -64.93853 | 33732 ft | 372 kts | 240° |
| 2026-05-07 14:53 | 44.47337 | -65.00010 | 33738 ft | 370 kts | 240° |
| 2026-05-07 14:54 | 44.44653 | -65.06119 | 33734 ft | 370 kts | 241° |
| 2026-05-07 14:54 | 44.41967 | -65.12228 | 33735 ft | 369 kts | 240° |
| 2026-05-07 14:55 | 44.39272 | -65.18349 | 33734 ft | 369 kts | 240° |
| 2026-05-07 14:55 | 44.36584 | -65.24420 | 33737 ft | 368 kts | 240° |
| 2026-05-07 14:56 | 44.33896 | -65.30495 | 33737 ft | 368 kts | 240° |
| 2026-05-07 14:56 | 44.31190 | -65.36581 | 33737 ft | 367 kts | 241° |
| 2026-05-07 14:57 | 44.28511 | -65.42610 | 33735 ft | 367 kts | 241° |
| 2026-05-07 14:57 | 44.25816 | -65.48666 | 33735 ft | 366 kts | 240° |
| 2026-05-07 14:58 | 44.23134 | -65.54675 | 33738 ft | 366 kts | 241° |
| 2026-05-07 14:58 | 44.20459 | -65.60651 | 33738 ft | 365 kts | 240° |
| 2026-05-07 14:59 | 44.17774 | -65.66640 | 33743 ft | 364 kts | 240° |
| 2026-05-07 14:59 | 44.15105 | -65.72578 | 33738 ft | 363 kts | 240° |
| 2026-05-07 15:00 | 44.12431 | -65.78523 | 33730 ft | 362 kts | 240° |
| 2026-05-07 15:00 | 44.09764 | -65.84431 | 33727 ft | 362 kts | 240° |
| 2026-05-07 15:01 | 44.07082 | -65.90356 | 33726 ft | 363 kts | 240° |
| 2026-05-07 15:01 | 44.04410 | -65.96255 | 33731 ft | 362 kts | 240° |
| 2026-05-07 15:02 | 44.01734 | -66.02153 | 33725 ft | 360 kts | 240° |
| 2026-05-07 15:02 | 43.99078 | -66.07986 | 33738 ft | 359 kts | 240° |
| 2026-05-07 15:03 | 43.96428 | -66.13803 | 33743 ft | 357 kts | 241° |
| 2026-05-07 15:03 | 43.93773 | -66.19620 | 33749 ft | 357 kts | 240° |
| 2026-05-07 15:04 | 43.91131 | -66.25404 | 33741 ft | 357 kts | 240° |
| 2026-05-07 15:04 | 43.88461 | -66.31223 | 33754 ft | 358 kts | 239° |
| 2026-05-07 15:05 | 43.85796 | -66.37020 | 33753 ft | 357 kts | 240° |
| 2026-05-07 15:05 | 43.83131 | -66.42804 | 33761 ft | 358 kts | 240° |
| 2026-05-07 15:06 | 43.80450 | -66.48626 | 33753 ft | 358 kts | 240° |
| 2026-05-07 15:06 | 43.77776 | -66.54400 | 33760 ft | 358 kts | 240° |
| 2026-05-07 15:07 | 43.75094 | -66.60203 | 33764 ft | 357 kts | 240° |
| 2026-05-07 15:07 | 43.72427 | -66.65951 | 33764 ft | 358 kts | 239° |
| 2026-05-07 15:08 | 43.69724 | -66.71751 | 33761 ft | 359 kts | 239° |
| 2026-05-07 15:08 | 43.67022 | -66.77551 | 33755 ft | 360 kts | 239° |
| 2026-05-07 15:09 | 43.64333 | -66.83319 | 33760 ft | 359 kts | 240° |
| 2026-05-07 15:09 | 43.61620 | -66.89117 | 33768 ft | 359 kts | 239° |
| 2026-05-07 15:10 | 43.58931 | -66.94858 | 33766 ft | 359 kts | 239° |
| 2026-05-07 15:10 | 43.56244 | -67.00688 | 33767 ft | 359 kts | 240° |
| 2026-05-07 15:11 | 43.53767 | -67.06623 | 33769 ft | 359 kts | 242° |
| 2026-05-07 15:11 | 43.51273 | -67.12536 | 33770 ft | 359 kts | 242° |
| 2026-05-07 15:12 | 43.48760 | -67.18494 | 33769 ft | 359 kts | 242° |
| 2026-05-07 15:12 | 43.46263 | -67.24416 | 33771 ft | 360 kts | 241° |
| 2026-05-07 15:13 | 43.43751 | -67.30355 | 33777 ft | 359 kts | 241° |
| 2026-05-07 15:13 | 43.41247 | -67.36266 | 33777 ft | 359 kts | 241° |
| 2026-05-07 15:14 | 43.38736 | -67.42194 | 33781 ft | 359 kts | 242° |
| 2026-05-07 15:14 | 43.36219 | -67.48113 | 33782 ft | 359 kts | 242° |
| 2026-05-07 15:15 | 43.33717 | -67.53989 | 33787 ft | 358 kts | 242° |
| 2026-05-07 15:15 | 43.31205 | -67.59879 | 33786 ft | 358 kts | 242° |
| 2026-05-07 15:16 | 43.28694 | -67.65748 | 33786 ft | 359 kts | 242° |
| 2026-05-07 15:16 | 43.26178 | -67.71619 | 33785 ft | 358 kts | 240° |
| 2026-05-07 15:17 | 43.23658 | -67.77486 | 33782 ft | 357 kts | 241° |
| 2026-05-07 15:17 | 43.21146 | -67.83336 | 33782 ft | 357 kts | 241° |
| 2026-05-07 15:18 | 43.18611 | -67.89204 | 33787 ft | 361 kts | 241° |
| 2026-05-07 15:18 | 43.16050 | -67.95142 | 33785 ft | 363 kts | 241° |
| 2026-05-07 15:19 | 43.13483 | -68.01073 | 33785 ft | 363 kts | 242° |
| 2026-05-07 15:19 | 43.10912 | -68.06992 | 33790 ft | 361 kts | 241° |
| 2026-05-07 15:20 | 43.08366 | -68.12854 | 33788 ft | 360 kts | 242° |
| 2026-05-07 15:20 | 43.05812 | -68.18727 | 33789 ft | 359 kts | 241° |
| 2026-05-07 15:21 | 43.03263 | -68.24564 | 33787 ft | 358 kts | 241° |
| 2026-05-07 15:21 | 43.00724 | -68.30367 | 33789 ft | 357 kts | 242° |
| 2026-05-07 15:22 | 42.98174 | -68.36192 | 33791 ft | 356 kts | 242° |
| 2026-05-07 15:22 | 42.95636 | -68.41975 | 33789 ft | 356 kts | 241° |
| 2026-05-07 15:23 | 42.93090 | -68.47765 | 33785 ft | 356 kts | 242° |
| 2026-05-07 15:23 | 42.90539 | -68.53557 | 33788 ft | 357 kts | 242° |
| 2026-05-07 15:24 | 42.87974 | -68.59369 | 33790 ft | 356 kts | 241° |
| 2026-05-07 15:24 | 42.85429 | -68.65118 | 33791 ft | 357 kts | 241° |
| 2026-05-07 15:25 | 42.82865 | -68.70897 | 33796 ft | 357 kts | 242° |
| 2026-05-07 15:25 | 42.80296 | -68.76695 | 33791 ft | 357 kts | 242° |
| 2026-05-07 15:26 | 42.77720 | -68.82486 | 33800 ft | 357 kts | 241° |
| 2026-05-07 15:26 | 42.75147 | -68.88244 | 33798 ft | 358 kts | 242° |
| 2026-05-07 15:27 | 42.72576 | -68.94004 | 33814 ft | 358 kts | 242° |
| 2026-05-07 15:27 | 42.69986 | -68.99789 | 33812 ft | 356 kts | 241° |
| 2026-05-07 15:28 | 42.67414 | -69.05517 | 33815 ft | 357 kts | 242° |
| 2026-05-07 15:28 | 42.64841 | -69.11247 | 33818 ft | 357 kts | 241° |
| 2026-05-07 15:29 | 42.62250 | -69.16991 | 33812 ft | 358 kts | 241° |
| 2026-05-07 15:29 | 42.59653 | -69.22761 | 33812 ft | 357 kts | 242° |
| 2026-05-07 15:30 | 42.57070 | -69.28476 | 33808 ft | 357 kts | 242° |
| 2026-05-07 15:30 | 42.54460 | -69.34237 | 33811 ft | 357 kts | 241° |
| 2026-05-07 15:31 | 42.51866 | -69.39958 | 33802 ft | 357 kts | 242° |
| 2026-05-07 15:31 | 42.49260 | -69.45682 | 33798 ft | 358 kts | 243° |
| 2026-05-07 15:32 | 42.46658 | -69.51408 | 33800 ft | 358 kts | 242° |
| 2026-05-07 15:32 | 42.44032 | -69.57158 | 33802 ft | 357 kts | 242° |
| 2026-05-07 15:33 | 42.41431 | -69.62847 | 33802 ft | 356 kts | 243° |
| 2026-05-07 15:33 | 42.38814 | -69.68555 | 33807 ft | 356 kts | 243° |
| 2026-05-07 15:34 | 42.36213 | -69.74232 | 33802 ft | 357 kts | 241° |
| 2026-05-07 15:34 | 42.33598 | -69.79909 | 33805 ft | 358 kts | 242° |
| 2026-05-07 15:35 | 42.30968 | -69.85606 | 33808 ft | 358 kts | 242° |
| 2026-05-07 15:35 | 42.28339 | -69.91311 | 33806 ft | 357 kts | 242° |
| 2026-05-07 15:36 | 42.25698 | -69.97012 | 33808 ft | 358 kts | 242° |
| 2026-05-07 15:36 | 42.23077 | -70.02677 | 33815 ft | 357 kts | 242° |
| 2026-05-07 15:37 | 42.20440 | -70.08353 | 33821 ft | 357 kts | 242° |
| 2026-05-07 15:37 | 42.17805 | -70.14014 | 33826 ft | 357 kts | 242° |
| 2026-05-07 15:38 | 42.15177 | -70.19659 | 33829 ft | 356 kts | 242° |
| 2026-05-07 15:38 | 42.12535 | -70.25311 | 33837 ft | 355 kts | 242° |
| 2026-05-07 15:39 | 42.09905 | -70.30923 | 33838 ft | 355 kts | 242° |
| 2026-05-07 15:39 | 42.07273 | -70.36549 | 33838 ft | 354 kts | 242° |
| 2026-05-07 15:40 | 42.04843 | -70.42276 | 33832 ft | 351 kts | 246° |
| 2026-05-07 15:40 | 42.02748 | -70.48144 | 33834 ft | 350 kts | 248° |
| 2026-05-07 15:41 | 42.00839 | -70.54170 | 33833 ft | 349 kts | 248° |
| 2026-05-07 15:41 | 41.98945 | -70.60118 | 33832 ft | 348 kts | 248° |
| 2026-05-07 15:42 | 41.97041 | -70.66120 | 33832 ft | 348 kts | 248° |
| 2026-05-07 15:42 | 41.95150 | -70.72095 | 33828 ft | 348 kts | 248° |
| 2026-05-07 15:43 | 41.93274 | -70.78029 | 33825 ft | 347 kts | 248° |
| 2026-05-07 15:43 | 41.91385 | -70.83974 | 33829 ft | 347 kts | 248° |
| 2026-05-07 15:44 | 41.89491 | -70.89931 | 33832 ft | 347 kts | 249° |
| 2026-05-07 15:44 | 41.87589 | -70.95908 | 33823 ft | 346 kts | 248° |
| 2026-05-07 15:45 | 41.85691 | -71.01849 | 33828 ft | 346 kts | 249° |
| 2026-05-07 15:45 | 41.83802 | -71.07763 | 33835 ft | 346 kts | 248° |
| 2026-05-07 15:46 | 41.80937 | -71.16679 | 33837 ft | 348 kts | 248° |
| 2026-05-07 15:47 | 41.79025 | -71.22620 | 33838 ft | 348 kts | 248° |
| 2026-05-07 15:47 | 41.77106 | -71.28565 | 33838 ft | 348 kts | 248° |
| 2026-05-07 15:48 | 41.74921 | -71.34370 | 33845 ft | 350 kts | 244° |
| 2026-05-07 15:48 | 41.72331 | -71.39857 | 33845 ft | 352 kts | 240° |
| 2026-05-07 15:49 | 41.69328 | -71.45038 | 33845 ft | 355 kts | 236° |
| 2026-05-07 15:49 | 41.65906 | -71.49875 | 33844 ft | 359 kts | 232° |
| 2026-05-07 15:50 | 41.62133 | -71.54294 | 33849 ft | 362 kts | 229° |
| 2026-05-07 15:50 | 41.58320 | -71.58621 | 33851 ft | 362 kts | 230° |
| 2026-05-07 15:51 | 41.54462 | -71.62961 | 33852 ft | 362 kts | 229° |
| 2026-05-07 15:51 | 41.50598 | -71.67270 | 33855 ft | 363 kts | 229° |
| 2026-05-07 15:52 | 41.46716 | -71.71590 | 33856 ft | 364 kts | 229° |
| 2026-05-07 15:52 | 41.42806 | -71.75932 | 33858 ft | 364 kts | 228° |
| 2026-05-07 15:53 | 41.38909 | -71.80245 | 33857 ft | 364 kts | 229° |
| 2026-05-07 15:53 | 41.35012 | -71.84550 | 33860 ft | 365 kts | 228° |
| 2026-05-07 15:54 | 41.31087 | -71.88882 | 33634 ft | 367 kts | 229° |
| 2026-05-07 15:54 | 41.29129 | -71.91039 | 33397 ft | 366 kts | 229° |
| 2026-05-07 15:54 | 41.27180 | -71.93182 | 32963 ft | 359 kts | 228° |
| 2026-05-07 15:54 | 41.25276 | -71.95274 | 32364 ft | 357 kts | 229° |
| 2026-05-07 15:55 | 41.23374 | -71.97369 | 31678 ft | 357 kts | 227° |
| 2026-05-07 15:55 | 41.21467 | -71.99463 | 30946 ft | 358 kts | 227° |
| 2026-05-07 15:55 | 41.19558 | -72.01560 | 30192 ft | 360 kts | 227° |
| 2026-05-07 15:55 | 41.17606 | -72.03698 | 29401 ft | 362 kts | 226° |
| 2026-05-07 15:56 | 41.15676 | -72.05809 | 28610 ft | 364 kts | 227° |
| 2026-05-07 15:56 | 41.13732 | -72.07948 | 27794 ft | 364 kts | 227° |
| 2026-05-07 15:56 | 41.11994 | -72.10307 | 26993 ft | 360 kts | 234° |
| 2026-05-07 15:56 | 41.10532 | -72.12941 | 26477 ft | 352 kts | 240° |
| 2026-05-07 15:57 | 41.09344 | -72.15756 | 25924 ft | 347 kts | 245° |
| 2026-05-07 15:57 | 41.08444 | -72.18686 | 25400 ft | 343 kts | 250° |
| 2026-05-07 15:57 | 41.07684 | -72.21645 | 24874 ft | 339 kts | 250° |
| 2026-05-07 15:57 | 41.06927 | -72.24564 | 24373 ft | 335 kts | 250° |
| 2026-05-07 15:58 | 41.06189 | -72.27457 | 23891 ft | 331 kts | 250° |
| 2026-05-07 15:58 | 41.05460 | -72.30328 | 23420 ft | 327 kts | 250° |
| 2026-05-07 15:58 | 41.04745 | -72.33162 | 22951 ft | 324 kts | 251° |
| 2026-05-07 15:58 | 41.04030 | -72.35989 | 22470 ft | 322 kts | 251° |
| 2026-05-07 15:59 | 41.03331 | -72.38783 | 22007 ft | 319 kts | 251° |
| 2026-05-07 15:59 | 41.02635 | -72.41551 | 21542 ft | 317 kts | 251° |
| 2026-05-07 15:59 | 41.01946 | -72.44305 | 21102 ft | 315 kts | 251° |
| 2026-05-07 15:59 | 41.01263 | -72.47025 | 20682 ft | 313 kts | 251° |
| 2026-05-07 16:00 | 41.00570 | -72.49778 | 20233 ft | 312 kts | 251° |
| 2026-05-07 16:00 | 40.99889 | -72.52496 | 19808 ft | 313 kts | 251° |
| 2026-05-07 16:00 | 40.99210 | -72.55195 | 19391 ft | 313 kts | 251° |
| 2026-05-07 16:00 | 40.98523 | -72.57937 | 18981 ft | 314 kts | 251° |
| 2026-05-07 16:01 | 40.97828 | -72.60688 | 18577 ft | 315 kts | 251° |
| 2026-05-07 16:01 | 40.97142 | -72.63416 | 18176 ft | 316 kts | 251° |
| 2026-05-07 16:01 | 40.96439 | -72.66197 | 17726 ft | 317 kts | 251° |
| 2026-05-07 16:01 | 40.95750 | -72.68928 | 17275 ft | 317 kts | 250° |
| 2026-05-07 16:02 | 40.95057 | -72.71681 | 16853 ft | 316 kts | 251° |
| 2026-05-07 16:02 | 40.94364 | -72.74415 | 16448 ft | 314 kts | 251° |
| 2026-05-07 16:02 | 40.93558 | -72.77125 | 16037 ft | 312 kts | 243° |
| 2026-05-07 16:02 | 40.92401 | -72.79529 | 15644 ft | 312 kts | 234° |
| 2026-05-07 16:03 | 40.90931 | -72.81640 | 15234 ft | 315 kts | 226° |
| 2026-05-07 16:03 | 40.89199 | -72.83447 | 14796 ft | 318 kts | 221° |
| 2026-05-07 16:03 | 40.87429 | -72.85178 | 14343 ft | 319 kts | 221° |
| 2026-05-07 16:03 | 40.85641 | -72.86909 | 13894 ft | 319 kts | 221° |
| 2026-05-07 16:04 | 40.83853 | -72.88633 | 13445 ft | 320 kts | 221° |
| 2026-05-07 16:04 | 40.82043 | -72.90374 | 13013 ft | 319 kts | 220° |
| 2026-05-07 16:04 | 40.80250 | -72.92093 | 12599 ft | 318 kts | 220° |
| 2026-05-07 16:04 | 40.78471 | -72.93793 | 12161 ft | 318 kts | 220° |
| 2026-05-07 16:05 | 40.76685 | -72.95503 | 11748 ft | 317 kts | 221° |
| 2026-05-07 16:05 | 40.74900 | -72.97206 | 11349 ft | 315 kts | 221° |
| 2026-05-07 16:05 | 40.73140 | -72.98890 | 10948 ft | 314 kts | 220° |
| 2026-05-07 16:05 | 40.71382 | -73.00569 | 10586 ft | 311 kts | 220° |
| 2026-05-07 16:06 | 40.69737 | -73.02306 | 10470 ft | 296 kts | 229° |
| 2026-05-07 16:06 | 40.68519 | -73.04390 | 10400 ft | 281 kts | 237° |
| 2026-05-07 16:06 | 40.67264 | -73.06342 | 10151 ft | 279 kts | 229° |
| 2026-05-07 16:06 | 40.65880 | -73.08122 | 9667 ft | 278 kts | 227° |
| 2026-05-07 16:07 | 40.64489 | -73.09845 | 9221 ft | 273 kts | 227° |
| 2026-05-07 16:07 | 40.63111 | -73.11532 | 8770 ft | 269 kts | 227° |
| 2026-05-07 16:07 | 40.61735 | -73.13201 | 8318 ft | 266 kts | 227° |
| 2026-05-07 16:07 | 40.60391 | -73.14817 | 7873 ft | 264 kts | 227° |
| 2026-05-07 16:08 | 40.59033 | -73.16447 | 7425 ft | 262 kts | 227° |
| 2026-05-07 16:08 | 40.57680 | -73.18059 | 6967 ft | 261 kts | 227° |
| 2026-05-07 16:08 | 40.56353 | -73.19640 | 6568 ft | 258 kts | 227° |
| 2026-05-07 16:08 | 40.55100 | -73.21269 | 6189 ft | 251 kts | 239° |
| 2026-05-07 16:09 | 40.54200 | -73.23216 | 5810 ft | 246 kts | 246° |
| 2026-05-07 16:09 | 40.53415 | -73.25203 | 5444 ft | 244 kts | 247° |
| 2026-05-07 16:09 | 40.52655 | -73.27186 | 5106 ft | 248 kts | 248° |
| 2026-05-07 16:09 | 40.51875 | -73.29247 | 4728 ft | 253 kts | 248° |
| 2026-05-07 16:10 | 40.51089 | -73.31320 | 4317 ft | 253 kts | 248° |
| 2026-05-07 16:10 | 40.50317 | -73.33366 | 4031 ft | 250 kts | 248° |
| 2026-05-07 16:10 | 40.49557 | -73.35374 | 3959 ft | 243 kts | 247° |
| 2026-05-07 16:10 | 40.48791 | -73.37391 | 3958 ft | 246 kts | 248° |
| 2026-05-07 16:11 | 40.48030 | -73.39404 | 3952 ft | 247 kts | 248° |
| 2026-05-07 16:11 | 40.47270 | -73.41415 | 3958 ft | 239 kts | 248° |
| 2026-05-07 16:11 | 40.46542 | -73.43317 | 3958 ft | 229 kts | 248° |
| 2026-05-07 16:11 | 40.45837 | -73.45150 | 3967 ft | 225 kts | 248° |
| 2026-05-07 16:12 | 40.45130 | -73.46991 | 3966 ft | 226 kts | 248° |
| 2026-05-07 16:12 | 40.44421 | -73.48842 | 3976 ft | 226 kts | 248° |
| 2026-05-07 16:12 | 40.43722 | -73.50668 | 3973 ft | 226 kts | 248° |
| 2026-05-07 16:12 | 40.43013 | -73.52534 | 3964 ft | 226 kts | 248° |
| 2026-05-07 16:13 | 40.42309 | -73.54382 | 3969 ft | 226 kts | 248° |
| 2026-05-07 16:13 | 40.41609 | -73.56205 | 3974 ft | 226 kts | 248° |
| 2026-05-07 16:13 | 40.40895 | -73.58064 | 3967 ft | 226 kts | 248° |
| 2026-05-07 16:13 | 40.40190 | -73.59886 | 3958 ft | 226 kts | 248° |
| 2026-05-07 16:14 | 40.39482 | -73.61724 | 3982 ft | 226 kts | 248° |
| 2026-05-07 16:14 | 40.38765 | -73.63588 | 3975 ft | 225 kts | 248° |
| 2026-05-07 16:14 | 40.38066 | -73.65410 | 3978 ft | 226 kts | 248° |
| 2026-05-07 16:14 | 40.37492 | -73.67303 | 3957 ft | 221 kts | 266° |
| 2026-05-07 16:15 | 40.37447 | -73.69321 | 3795 ft | 220 kts | 275° |
| 2026-05-07 16:15 | 40.37540 | -73.71317 | 3542 ft | 222 kts | 277° |
| 2026-05-07 16:15 | 40.37659 | -73.73338 | 3285 ft | 223 kts | 277° |
| 2026-05-07 16:15 | 40.37780 | -73.75375 | 3045 ft | 225 kts | 277° |
| 2026-05-07 16:16 | 40.37893 | -73.77394 | 2972 ft | 218 kts | 277° |
| 2026-05-07 16:16 | 40.38008 | -73.79381 | 2973 ft | 220 kts | 277° |
| 2026-05-07 16:16 | 40.38121 | -73.81365 | 2971 ft | 220 kts | 277° |
| 2026-05-07 16:16 | 40.38236 | -73.83369 | 2836 ft | 222 kts | 277° |
| 2026-05-07 16:17 | 40.38351 | -73.85394 | 2605 ft | 222 kts | 277° |
| 2026-05-07 16:17 | 40.38466 | -73.87399 | 2347 ft | 218 kts | 277° |
| 2026-05-07 16:17 | 40.38576 | -73.89348 | 2142 ft | 214 kts | 278° |
| 2026-05-07 16:17 | 40.38934 | -73.91183 | 1953 ft | 204 kts | 310° |
| 2026-05-07 16:18 | 40.40012 | -73.92232 | 1963 ft | 189 kts | 341° |
| 2026-05-07 16:18 | 40.41301 | -73.92528 | 1970 ft | 191 kts | 350° |
| 2026-05-07 16:18 | 40.42508 | -73.93225 | 1941 ft | 194 kts | 315° |
| 2026-05-07 16:18 | 40.43378 | -73.94593 | 1975 ft | 195 kts | 317° |
| 2026-05-07 16:19 | 40.44548 | -73.95378 | 1956 ft | 194 kts | 354° |
| 2026-05-07 16:19 | 40.45869 | -73.95019 | 1966 ft | 200 kts | 30° |
| 2026-05-07 16:19 | 40.46836 | -73.93696 | 1986 ft | 205 kts | 52° |
| 2026-05-07 16:19 | 40.47575 | -73.92099 | 1985 ft | 204 kts | 57° |
| 2026-05-07 16:20 | 40.48237 | -73.90516 | 1971 ft | 192 kts | 57° |
| 2026-05-07 16:20 | 40.48846 | -73.89007 | 1957 ft | 178 kts | 58° |
| 2026-05-07 16:20 | 40.49485 | -73.87711 | 1945 ft | 165 kts | 43° |
| 2026-05-07 16:20 | 40.50325 | -73.86709 | 1964 ft | 163 kts | 33° |
| 2026-05-07 16:21 | 40.51265 | -73.85859 | 1969 ft | 162 kts | 28° |
| 2026-05-07 16:21 | 40.52231 | -73.85085 | 1974 ft | 162 kts | 27° |
| 2026-05-07 16:21 | 40.53199 | -73.84333 | 1974 ft | 163 kts | 26° |
| 2026-05-07 16:21 | 40.54181 | -73.83572 | 1971 ft | 162 kts | 26° |
| 2026-05-07 16:22 | 40.55160 | -73.82810 | 1823 ft | 166 kts | 27° |
| 2026-05-07 16:22 | 40.56154 | -73.82034 | 1482 ft | 167 kts | 27° |
| 2026-05-07 16:22 | 40.57137 | -73.81261 | 1253 ft | 159 kts | 26° |
| 2026-05-07 16:22 | 40.58060 | -73.80537 | 1050 ft | 152 kts | 27° |
| 2026-05-07 16:23 | 40.58947 | -73.79844 | 858 ft | 145 kts | 27° |
| 2026-05-07 16:23 | 40.59799 | -73.79179 | 670 ft | 138 kts | 26° |
| 2026-05-07 16:23 | 40.60617 | -73.78538 | 498 ft | 136 kts | 26° |
| 2026-05-07 16:23 | 40.61435 | -73.77901 | 317 ft | 136 kts | 27° |
| 2026-05-07 16:24 | 40.62245 | -73.77268 | 144 ft | 135 kts | 26° |
| 2026-05-07 16:24 | 40.63047 | -73.76643 | 31 ft | 127 kts | 26° |
| 2026-05-07 16:24 | 40.63657 | -73.76170 | 30 ft | 70 kts | 28° |
| 2026-05-07 16:24 | 40.63941 | -73.76065 | 29 ft | 3 kts | 353° |
| 2026-05-07 16:25 | 40.63965 | -73.76070 | 29 ft | 7 kts | 346° |
| 2026-05-07 16:25 | 40.64018 | -73.76109 | 29 ft | 9 kts | 315° |
| 2026-05-07 16:25 | 40.64059 | -73.76184 | 29 ft | 10 kts | 301° |
| 2026-05-07 16:26 | 40.64099 | -73.76275 | 29 ft | 12 kts | 299° |
| 2026-05-07 16:26 | 40.64142 | -73.76376 | 29 ft | 13 kts | 300° |
| 2026-05-07 16:26 | 40.64193 | -73.76485 | 29 ft | 14 kts | 302° |
| 2026-05-07 16:26 | 40.64244 | -73.76598 | 29 ft | 14 kts | 301° |
| 2026-05-07 16:27 | 40.64299 | -73.76717 | 29 ft | 15 kts | 301° |
| 2026-05-07 16:27 | 40.64356 | -73.76841 | 29 ft | 16 kts | 300° |
| 2026-05-07 16:27 | 40.64407 | -73.76974 | 29 ft | 16 kts | 289° |
| 2026-05-07 16:27 | 40.64405 | -73.77119 | 29 ft | 16 kts | 235° |
| 2026-05-07 16:28 | 40.64309 | -73.77204 | 29 ft | 16 kts | 210° |
| 2026-05-07 16:28 | 40.64207 | -73.77283 | 29 ft | 17 kts | 210° |
| 2026-05-07 16:28 | 40.64102 | -73.77363 | 29 ft | 17 kts | 210° |
| 2026-05-07 16:28 | 40.63996 | -73.77444 | 29 ft | 17 kts | 211° |
| 2026-05-07 16:29 | 40.63889 | -73.77531 | 29 ft | 18 kts | 211° |
| 2026-05-07 16:29 | 40.63779 | -73.77615 | 29 ft | 18 kts | 211° |
| 2026-05-07 16:29 | 40.63669 | -73.77704 | 29 ft | 18 kts | 211° |
| 2026-05-07 16:29 | 40.63579 | -73.77769 | 29 ft | 8 kts | 207° |
| 2026-05-07 16:30 | 40.63562 | -73.77829 | 29 ft | 8 kts | 290° |
| 2026-05-07 16:30 | 40.63589 | -73.77879 | 29 ft | 6 kts | 332° |
| 2026-05-07 16:30 | 40.63642 | -73.77896 | 29 ft | 8 kts | 349° |
| 2026-05-07 16:30 | 40.63707 | -73.77908 | 29 ft | 10 kts | 353° |
| 2026-05-07 16:31 | 40.63782 | -73.77918 | 29 ft | 11 kts | 353° |
| 2026-05-07 16:31 | 40.63866 | -73.77931 | 29 ft | 12 kts | 353° |
| 2026-05-07 16:31 | 40.63956 | -73.77947 | 29 ft | 13 kts | 353° |
| 2026-05-07 16:31 | 40.64047 | -73.77980 | 29 ft | 12 kts | 333° |
| 2026-05-07 16:32 | 40.64125 | -73.78035 | 29 ft | 8 kts | 330° |
| 2026-05-07 16:32 | 40.64163 | -73.78052 | 29 ft | 6 kts | 355° |
| 2026-05-07 16:32 | 40.64217 | -73.78049 | 29 ft | 8 kts | 6° |
| 2026-05-07 16:32 | 40.64275 | -73.78039 | 29 ft | 7 kts | 8° |
| 2026-05-07 16:33 | 40.64294 | -73.78035 | 29 ft | 0 kts | 7° |